Time;durP1;ratioP1;P1;durP2;ratioP2;P2;SDS_P1;SDS_P2;PMS_P1;PMS_P2;Temp;Humidity;BMP_temperature;BMP_pressure;BME280_temperature;BME280_humidity;BME280_pressure;Samples;Min_cycle;Max_cycle;Signal;HPM_P1;HPM_P2
2023/08/14 00:02:04;;;;;;;3.53;2.20;;;21.40;99.90;;;21.44;62.09;101217.56;4929953;28;97482;-45
2023/08/14 00:04:30;;;;;;;3.57;1.87;;;21.40;99.90;;;21.44;61.98;101211.31;4928543;28;103492;-44
2023/08/14 00:06:56;;;;;;;3.03;1.83;;;21.40;99.90;;;21.45;61.91;101213.91;4942204;28;110922;-44
2023/08/14 00:09:22;;;;;;;4.60;2.07;;;21.40;99.90;;;21.45;62.00;101208.53;4931718;28;106086;-44
2023/08/14 00:11:47;;;;;;;3.90;2.20;;;21.40;99.90;;;21.47;61.87;101211.94;4935482;28;97718;-44
2023/08/14 00:14:13;;;;;;;7.73;3.10;;;21.40;99.90;;;21.50;61.22;101218.91;4935490;28;101142;-45
2023/08/14 00:16:39;;;;;;;3.13;2.10;;;21.50;99.90;;;21.47;61.95;101206.59;4933812;28;97386;-44
2023/08/14 00:19:04;;;;;;;4.17;2.00;;;21.40;99.90;;;21.46;62.14;101212.91;4930564;28;97398;-45
2023/08/14 00:21:30;;;;;;;4.77;2.27;;;21.40;99.90;;;21.45;62.11;101211.22;4929153;28;97325;-45
2023/08/14 00:23:56;;;;;;;4.57;2.80;;;21.40;99.90;;;21.45;61.87;101208.53;4936188;28;105350;-45
2023/08/14 00:26:22;;;;;;;3.07;2.07;;;21.40;99.90;;;21.45;62.12;101208.53;4931038;28;112994;-43
2023/08/14 00:28:47;;;;;;;2.93;1.97;;;21.40;99.90;;;21.47;62.14;101206.59;4938064;28;107818;-46
2023/08/14 00:31:13;;;;;;;3.80;2.07;;;21.40;99.90;;;21.46;62.02;101214.75;4926053;28;108071;-44
2023/08/14 00:33:39;;;;;;;3.53;2.10;;;21.40;99.90;;;21.47;61.88;101203.91;4929930;28;97568;-44
2023/08/14 00:36:05;;;;;;;2.90;2.03;;;21.50;99.90;;;21.50;61.87;101205.50;4931257;28;97210;-43
2023/08/14 00:38:31;;;;;;;3.93;2.00;;;21.50;99.90;;;21.51;61.85;101207.22;4929859;28;97212;-43
2023/08/14 00:40:57;;;;;;;3.87;2.33;;;21.50;99.90;;;21.51;61.46;101205.38;4928168;28;97953;-43
2023/08/14 00:43:23;;;;;;;4.43;2.73;;;21.50;99.90;;;21.50;61.64;101200.97;4938099;28;97545;-43
2023/08/14 00:45:54;;;;;;;3.77;2.53;;;21.40;99.90;;;21.49;61.90;101210.00;4931588;28;99686;-42
2023/08/14 00:48:20;;;;;;;4.20;2.13;;;21.40;99.90;;;21.48;61.84;101208.28;4931797;28;101999;-46
2023/08/14 00:50:46;;;;;;;4.80;2.47;;;21.40;99.90;;;21.46;61.72;101215.59;4937357;28;98946;-43
2023/08/14 00:53:14;;;;;;;3.63;2.10;;;21.40;99.90;;;21.44;62.05;101201.44;4921087;28;96672;-43
2023/08/14 00:55:40;;;;;;;5.87;2.17;;;21.40;99.90;;;21.45;61.94;101202.31;4925419;28;97158;-44
2023/08/14 00:58:06;;;;;;;3.57;2.40;;;21.40;99.90;;;21.47;61.90;101206.59;4927723;28;97216;-47
2023/08/14 01:00:34;;;;;;;2.50;1.97;;;21.40;99.90;;;21.48;61.96;101204.75;4915734;28;97154;-42
2023/08/14 01:03:02;;;;;;;3.40;2.03;;;21.40;99.90;;;21.46;62.05;101199.50;4936277;28;97314;-43
2023/08/14 01:05:28;;;;;;;3.77;1.90;;;21.40;99.90;;;21.47;61.80;101195.84;4937138;28;99017;-43
2023/08/14 01:07:55;;;;;;;2.50;1.63;;;21.40;99.90;;;21.49;61.91;101199.28;4920451;28;111182;-43
2023/08/14 01:10:21;;;;;;;3.57;2.27;;;21.40;99.90;;;21.50;61.82;101200.97;4932703;28;96837;-45
2023/08/14 01:13:12;;;;;;;3.30;2.23;;;21.40;99.90;;;21.51;61.70;101200.00;4904551;28;110953;-43
2023/08/14 01:15:53;;;;;;;4.73;2.27;;;21.40;99.90;;;21.50;61.79;101200.13;4917570;28;100319;-44
2023/08/14 01:18:21;;;;;;;4.27;2.23;;;21.40;99.90;;;21.46;61.36;101202.19;4926008;28;101249;-46
2023/08/14 01:21:11;;;;;;;3.53;1.70;;;21.40;99.90;;;21.45;61.75;101203.16;4936105;28;98361;-43
2023/08/14 01:24:21;;;;;;;3.10;1.97;;;21.30;99.90;;;21.42;62.11;101187.28;4929183;28;97197;-44
2023/08/14 01:26:49;;;;;;;3.17;2.10;;;21.30;99.90;;;21.39;62.05;101193.72;4866641;28;100405;-43
2023/08/14 01:29:15;;;;;;;4.30;2.50;;;21.30;99.90;;;21.41;62.07;101196.31;4916277;28;99747;-42
2023/08/14 01:31:41;;;;;;;5.50;2.50;;;21.30;99.90;;;21.42;62.18;101187.28;4927562;28;97521;-43
2023/08/14 01:34:07;;;;;;;3.47;2.10;;;21.40;99.90;;;21.41;62.21;101190.94;4937540;28;97400;-43
2023/08/14 01:36:39;;;;;;;3.10;2.07;;;21.40;99.90;;;21.42;62.07;101179.22;4933217;28;127998;-43
2023/08/14 01:39:09;;;;;;;2.20;1.80;;;21.40;99.90;;;21.44;62.12;101174.63;4928294;28;97138;-44
2023/08/14 01:41:50;;;;;;;3.07;2.17;;;21.40;99.90;;;21.47;62.15;101168.16;4931518;28;97306;-43
2023/08/14 01:44:21;;;;;;;7.40;2.30;;;21.40;99.90;;;21.47;62.13;101174.38;4929124;28;97406;-43
2023/08/14 01:46:48;;;;;;;3.50;1.67;;;21.40;99.90;;;21.46;62.12;101161.94;4930449;28;103353;-44
2023/08/14 01:49:17;;;;;;;3.97;2.00;;;21.40;99.90;;;21.47;61.94;101146.69;4937871;28;102627;-45
2023/08/14 01:51:46;;;;;;;3.07;2.10;;;21.50;99.90;;;21.47;61.93;101152.91;4913436;28;97089;-44
2023/08/14 01:54:12;;;;;;;3.37;2.13;;;21.50;99.90;;;21.49;61.72;101150.97;4928371;28;97415;-44
2023/08/14 01:56:37;;;;;;;3.00;1.93;;;21.40;99.90;;;21.48;61.42;101149.25;4933909;28;104156;-43
2023/08/14 01:59:03;;;;;;;6.40;2.03;;;21.40;99.90;;;21.47;61.93;101152.06;4936705;28;118389;-43
2023/08/14 02:01:29;;;;;;;4.67;2.10;;;21.40;99.90;;;21.44;62.12;101136.19;4928816;28;97618;-43
2023/08/14 02:03:55;;;;;;;4.50;1.87;;;21.40;99.90;;;21.45;61.96;101137.91;4929997;28;100590;-44
2023/08/14 02:06:20;;;;;;;2.73;2.00;;;21.40;99.90;;;21.46;61.87;101136.91;4928815;28;115248;-44
2023/08/14 02:08:46;;;;;;;3.30;1.87;;;21.40;99.90;;;21.45;61.92;101141.44;4932113;28;113839;-43
2023/08/14 02:11:12;;;;;;;8.00;2.27;;;21.40;99.90;;;21.44;62.01;101139.72;4931834;28;97454;-44
2023/08/14 02:13:38;;;;;;;4.17;2.20;;;21.40;99.90;;;21.44;62.10;101136.19;4935684;28;97327;-46
2023/08/14 02:16:04;;;;;;;3.37;2.00;;;21.40;99.90;;;21.44;62.22;101131.66;4928695;28;96712;-45
2023/08/14 02:18:30;;;;;;;2.67;1.70;;;21.40;99.90;;;21.46;61.92;101135.09;4929954;28;97598;-43
2023/08/14 02:20:56;;;;;;;2.17;1.73;;;21.40;99.90;;;21.46;61.98;101128.88;4926212;28;96994;-46
2023/08/14 02:23:21;;;;;;;2.87;2.13;;;21.40;99.90;;;21.45;61.96;101122.66;4931919;28;99225;-47
2023/08/14 02:25:47;;;;;;;2.77;1.73;;;21.40;99.90;;;21.45;61.77;101128.00;4929196;28;117084;-46
2023/08/14 02:28:13;;;;;;;2.60;2.07;;;21.40;99.90;;;21.43;61.77;101124.59;4936136;28;106050;-43
2023/08/14 02:30:43;;;;;;;5.30;1.70;;;21.40;99.90;;;21.43;62.14;101115.69;4930342;28;97459;-45
2023/08/14 02:33:09;;;;;;;2.80;2.00;;;21.30;99.90;;;21.42;61.98;101112.16;4933082;28;97135;-43
2023/08/14 02:35:36;;;;;;;2.90;1.57;;;21.30;99.90;;;21.41;61.11;101110.44;4927717;28;97060;-46
2023/08/14 02:38:05;;;;;;;2.87;1.30;;;21.30;99.90;;;21.32;61.01;101111.97;4931392;28;97440;-42
2023/08/14 02:40:31;;;;;;;3.10;1.90;;;21.20;99.90;;;21.28;61.61;101115.00;4910335;28;97528;-46
2023/08/14 02:43:00;;;;;;;4.10;1.70;;;21.10;99.90;;;21.26;62.75;101122.25;4923433;28;97054;-44
2023/08/14 02:45:26;;;;;;;1.93;1.53;;;21.00;99.90;;;21.23;62.78;101122.47;4927580;28;98721;-42
2023/08/14 02:47:52;;;;;;;2.50;1.60;;;21.00;99.90;;;21.23;62.89;101122.47;4913747;28;98221;-45
2023/08/14 02:50:17;;;;;;;3.20;1.80;;;21.00;99.90;;;21.23;62.80;101125.16;4938417;28;97466;-43
2023/08/14 02:52:43;;;;;;;2.63;1.73;;;21.10;99.90;;;21.23;62.70;101126.00;4931314;28;97223;-42
2023/08/14 02:55:09;;;;;;;2.77;1.70;;;21.10;99.90;;;21.23;62.71;101122.47;4928760;28;100187;-45
2023/08/14 02:57:35;;;;;;;3.83;1.40;;;21.10;99.90;;;21.20;62.02;101134.28;4926741;28;121609;-44
2023/08/14 03:00:00;;;;;;;3.50;1.53;;;21.00;99.90;;;21.17;62.69;101128.28;4926733;28;118462;-45
2023/08/14 03:02:26;;;;;;;2.20;1.70;;;20.90;99.90;;;21.17;62.95;101125.59;4930073;28;97445;-45
2023/08/14 03:04:54;;;;;;;4.77;1.70;;;21.00;99.90;;;21.18;62.88;101124.63;4927356;28;111293;-44
2023/08/14 03:07:20;;;;;;;2.97;1.97;;;21.00;99.90;;;21.21;62.76;101124.41;4933708;28;97633;-43
2023/08/14 03:09:46;;;;;;;2.57;1.90;;;21.10;99.90;;;21.20;62.27;101125.38;4931443;28;98279;-44
2023/08/14 03:12:12;;;;;;;3.00;1.97;;;21.00;99.90;;;21.18;62.81;101124.63;4933904;28;103956;-42
2023/08/14 03:14:37;;;;;;;3.17;1.80;;;21.00;99.90;;;21.18;62.97;101120.13;4933769;28;97820;-45
2023/08/14 03:17:03;;;;;;;3.33;1.77;;;21.00;99.90;;;21.20;62.86;101122.69;4931393;28;104658;-44
2023/08/14 03:19:29;;;;;;;2.30;1.60;;;21.10;99.90;;;21.22;62.79;101120.75;4933566;28;97056;-43
2023/08/14 03:21:55;;;;;;;1.83;1.53;;;21.10;99.90;;;21.24;62.65;101124.19;4934927;28;99248;-46
2023/08/14 03:24:20;;;;;;;2.00;1.40;;;21.10;99.90;;;21.25;62.76;101121.41;4935534;28;117329;-47
2023/08/14 03:26:48;;;;;;;4.87;1.67;;;21.20;99.90;;;21.27;62.65;101119.50;4931809;28;97264;-44
2023/08/14 03:29:14;;;;;;;1.80;1.50;;;21.20;99.90;;;21.29;62.44;101111.34;4932877;28;97185;-44
2023/08/14 03:31:40;;;;;;;1.70;1.40;;;21.20;99.90;;;21.29;62.57;101116.69;4930569;28;98745;-43
2023/08/14 03:34:05;;;;;;;2.10;1.50;;;21.20;99.90;;;21.30;62.48;101119.28;4937520;28;100032;-44
2023/08/14 03:36:31;;;;;;;1.97;1.20;;;21.20;99.90;;;21.30;62.71;101126.47;4932996;28;97170;-45
2023/08/14 03:38:57;;;;;;;1.43;1.30;;;21.20;99.90;;;21.30;62.42;101129.16;4928727;28;97418;-44
2023/08/14 03:41:23;;;;;;;2.57;1.60;;;21.20;99.90;;;21.27;61.85;101124.00;4936941;28;97515;-43
2023/08/14 03:43:48;;;;;;;2.47;1.30;;;21.20;99.90;;;21.24;62.04;101129.53;4923817;28;97015;-44
2023/08/14 03:46:14;;;;;;;1.87;1.20;;;21.10;99.90;;;21.20;62.40;101126.22;4933689;28;109388;-44
2023/08/14 03:48:40;;;;;;;2.87;1.60;;;21.00;99.90;;;21.13;61.03;101132.16;4942272;28;104733;-45
2023/08/14 03:51:06;;;;;;;2.03;1.10;;;20.90;99.90;;;21.05;61.59;101130.88;4931729;28;101352;-44
2023/08/14 03:53:33;;;;;;;3.40;1.40;;;20.80;99.90;;;21.03;63.34;101124.78;4947928;28;99485;-42
2023/08/14 03:55:59;;;;;;;1.73;1.60;;;20.80;99.90;;;21.04;63.51;101117.59;4934561;28;96656;-42
2023/08/14 03:58:24;;;;;;;1.23;1.10;;;20.80;99.90;;;21.04;63.45;101113.06;4937198;28;99932;-47
2023/08/14 04:00:50;;;;;;;3.20;1.70;;;20.90;99.90;;;21.04;63.42;101118.44;4936878;28;96925;-47
2023/08/14 04:03:16;;;;;;;1.93;1.43;;;20.80;99.90;;;21.03;63.13;101115.88;4936254;28;102577;-43
2023/08/14 04:05:43;;;;;;;1.83;1.20;;;20.80;99.90;;;21.01;63.18;101118.66;4932950;28;98324;-43
2023/08/14 04:08:09;;;;;;;1.87;1.17;;;20.80;99.90;;;21.00;63.43;101113.41;4936091;28;97377;-45
2023/08/14 04:10:36;;;;;;;1.90;1.43;;;20.80;99.90;;;21.01;63.36;101116.00;4930862;28;103839;-46
2023/08/14 04:13:03;;;;;;;2.07;1.57;;;20.80;99.90;;;21.05;63.32;101120.16;4927935;28;97429;-45
2023/08/14 04:15:29;;;;;;;2.77;1.60;;;20.90;99.90;;;21.10;63.27;101112.63;4928376;28;98340;-46
2023/08/14 04:17:55;;;;;;;1.07;0.93;;;21.00;99.90;;;21.12;63.11;101103.59;4931242;28;97028;-46
2023/08/14 04:20:21;;;;;;;2.00;1.27;;;21.00;99.90;;;21.14;62.38;101107.06;4942984;28;97038;-45
2023/08/14 04:22:47;;;;;;;1.07;0.93;;;21.00;99.90;;;21.10;61.90;101107.25;4939891;28;97156;-43
2023/08/14 04:25:13;;;;;;;2.57;1.53;;;20.90;99.90;;;21.08;63.05;101108.34;4929633;28;97338;-43
2023/08/14 04:27:38;;;;;;;2.27;1.63;;;20.90;99.90;;;21.08;63.20;101109.19;4926873;28;97594;-42
2023/08/14 04:30:06;;;;;;;2.00;1.60;;;20.90;99.90;;;21.09;63.13;101110.91;4931249;28;97905;-45
2023/08/14 04:32:33;;;;;;;4.97;1.50;;;20.90;99.90;;;21.06;60.82;101110.28;4927907;28;97074;-43
2023/08/14 04:34:59;;;;;;;1.73;1.50;;;20.90;99.90;;;21.03;63.12;101111.38;4934217;28;97077;-42
2023/08/14 04:37:25;;;;;;;3.43;1.30;;;20.80;99.90;;;20.99;61.49;101114.38;4925415;28;97155;-47
2023/08/14 04:39:50;;;;;;;4.47;1.20;;;20.80;99.90;;;20.97;63.29;101103.75;4934479;28;99718;-50
2023/08/14 04:42:16;;;;;;;1.83;1.10;;;20.70;99.90;;;20.98;63.79;101097.44;4938343;28;113269;-45
2023/08/14 04:44:42;;;;;;;1.97;1.50;;;20.80;99.90;;;20.96;63.26;101094.00;4930892;28;97703;-48
2023/08/14 04:47:07;;;;;;;4.47;1.43;;;20.80;99.90;;;20.93;61.19;101099.56;4924795;28;115524;-45
2023/08/14 04:49:33;;;;;;;2.30;1.33;;;20.70;99.90;;;20.92;63.05;101108.59;4935840;28;96958;-42
2023/08/14 04:51:59;;;;;;;1.07;0.90;;;20.70;99.90;;;20.91;63.86;101104.19;4931552;28;97871;-46
2023/08/14 04:54:27;;;;;;;1.87;1.37;;;20.70;99.90;;;20.92;63.67;101094.31;4934627;28;98560;-44
2023/08/14 04:56:52;;;;;;;1.83;1.37;;;20.70;99.90;;;20.93;63.54;101094.22;4932649;28;96912;-43
2023/08/14 04:59:18;;;;;;;5.37;1.20;;;20.70;99.90;;;20.90;61.80;101093.59;4937905;28;97074;-45
2023/08/14 05:01:45;;;;;;;1.53;1.30;;;20.70;99.90;;;20.82;62.39;101102.16;4933591;28;108635;-42
2023/08/14 05:04:10;;;;;;;2.37;1.30;;;20.50;99.90;;;20.80;63.68;101098.75;4933926;28;97435;-45
2023/08/14 05:06:36;;;;;;;2.83;1.60;;;20.50;99.90;;;20.73;63.14;101101.00;4935777;28;97379;-44
2023/08/14 05:09:02;;;;;;;5.17;1.50;;;20.40;99.90;;;20.69;63.16;101112.94;4933922;28;97704;-44
2023/08/14 05:11:28;;;;;;;2.03;1.10;;;20.30;99.90;;;20.70;64.46;101111.09;4925396;28;112202;-45
2023/08/14 05:13:53;;;;;;;1.70;1.37;;;20.30;99.90;;;20.71;64.32;101104.78;4922427;28;115081;-46
2023/08/14 05:16:19;;;;;;;2.20;1.47;;;20.40;99.90;;;20.74;64.56;101097.38;4925842;28;98618;-42
2023/08/14 05:18:45;;;;;;;1.23;1.10;;;20.50;99.90;;;20.80;64.19;101078.16;4931883;28;97336;-47
2023/08/14 05:21:11;;;;;;;2.10;1.13;;;20.60;99.90;;;20.86;63.77;101076.88;4908140;28;107886;-43
2023/08/14 05:23:37;;;;;;;2.10;1.50;;;20.70;99.90;;;20.81;61.76;101076.31;4930994;28;120617;-45
2023/08/14 05:26:02;;;;;;;2.27;1.27;;;20.60;99.90;;;20.75;63.70;101084.81;4936830;28;107970;-45
2023/08/14 05:28:28;;;;;;;4.07;1.90;;;20.50;99.90;;;20.71;63.17;101083.34;4933638;28;97651;-44
2023/08/14 05:30:54;;;;;;;2.10;1.43;;;20.40;99.90;;;20.72;64.42;101085.03;4924885;28;112195;-43
2023/08/14 05:33:19;;;;;;;1.50;1.13;;;20.40;99.90;;;20.78;64.22;101084.59;4935344;28;107281;-45
2023/08/14 05:35:49;;;;;;;1.27;1.13;;;20.50;99.90;;;20.83;64.19;101087.81;4931681;28;102004;-43
2023/08/14 05:38:15;;;;;;;3.20;1.37;;;20.60;99.90;;;20.86;63.90;101092.97;4935391;28;97107;-42
2023/08/14 05:40:41;;;;;;;3.00;1.30;;;20.60;99.90;;;20.85;63.42;101096.59;4926316;28;103633;-42
2023/08/14 05:43:10;;;;;;;1.10;1.00;;;20.70;99.90;;;20.89;63.87;101103.44;4928016;28;119577;-46
2023/08/14 05:45:42;;;;;;;1.50;1.30;;;20.70;99.90;;;20.94;63.84;101089.72;4921974;28;108817;-46
2023/08/14 05:48:08;;;;;;;1.17;0.87;;;20.80;99.90;;;20.97;63.44;101095.69;4930750;28;97037;-46
2023/08/14 05:50:35;;;;;;;2.73;1.50;;;20.80;99.90;;;21.01;62.78;101096.34;4930142;28;98672;-43
2023/08/14 05:53:03;;;;;;;3.07;1.60;;;20.90;99.90;;;20.88;63.71;101096.38;4909762;28;97435;-45
2023/08/14 05:55:34;;;;;;;1.43;1.27;;;20.70;99.90;;;20.88;64.05;101101.75;4927604;28;96954;-43
2023/08/14 05:58:00;;;;;;;1.97;1.23;;;20.60;99.90;;;20.92;63.87;101087.13;4937867;28;97513;-42
2023/08/14 06:00:27;;;;;;;2.27;1.30;;;20.80;99.90;;;20.96;63.72;101091.31;4930972;28;98758;-44
2023/08/14 06:02:53;;;;;;;1.20;1.10;;;20.90;99.90;;;21.00;63.68;101087.47;4929021;28;123885;-44
2023/08/14 06:05:20;;;;;;;2.90;1.23;;;21.00;99.90;;;21.07;63.45;101086.03;4924593;28;97390;-43
2023/08/14 06:07:50;;;;;;;1.20;0.93;;;21.00;99.90;;;21.14;63.18;101090.97;4930841;28;97615;-44
2023/08/14 06:10:16;;;;;;;1.60;1.20;;;21.10;99.90;;;21.17;62.53;101096.09;4914361;28;102181;-43
2023/08/14 06:12:44;;;;;;;2.80;1.67;;;21.20;99.90;;;21.17;63.12;101106.81;4930539;28;96611;-44
2023/08/14 06:15:11;;;;;;;1.93;1.43;;;21.20;99.90;;;21.19;62.92;101099.53;4927443;28;97189;-44
2023/08/14 06:17:38;;;;;;;4.57;1.00;;;21.20;99.90;;;21.26;62.33;101095.44;4928919;28;97480;-43
2023/08/14 06:20:05;;;;;;;2.17;1.40;;;21.30;99.90;;;21.29;62.46;101095.25;4926086;28;98654;-42
2023/08/14 06:22:31;;;;;;;2.00;1.20;;;21.30;99.90;;;21.30;62.28;101088.91;4924308;28;97652;-45
2023/08/14 06:24:57;;;;;;;2.23;1.47;;;21.30;99.90;;;21.29;62.19;101095.25;4929378;28;97365;-43
2023/08/14 06:27:23;;;;;;;3.40;1.40;;;21.30;99.90;;;21.31;61.71;101099.50;4929216;28;96931;-46
2023/08/14 06:29:48;;;;;;;1.37;0.97;;;21.30;99.90;;;21.31;62.27;101098.66;4928363;28;102979;-44
2023/08/14 06:32:14;;;;;;;1.33;0.90;;;21.30;99.90;;;21.31;62.36;101088.78;4921756;28;96957;-45
2023/08/14 06:34:41;;;;;;;3.00;0.80;;;21.30;99.90;;;21.31;62.26;101104.88;4929821;28;97663;-43
2023/08/14 06:37:07;;;;;;;1.77;1.20;;;21.30;99.90;;;21.30;62.47;101100.47;4928480;28;97444;-43
2023/08/14 06:39:33;;;;;;;1.90;1.20;;;21.30;99.90;;;21.28;62.56;101099.75;4926417;28;97477;-44
2023/08/14 06:41:59;;;;;;;2.13;1.07;;;21.30;99.90;;;21.32;62.32;101089.63;4929512;28;108045;-43
2023/08/14 06:44:25;;;;;;;2.00;0.87;;;21.30;99.90;;;21.32;62.27;101081.59;4928465;28;99121;-46
2023/08/14 06:46:53;;;;;;;1.00;0.90;;;21.40;99.90;;;21.35;62.03;101067.94;4932942;28;98781;-47
2023/08/14 06:49:18;;;;;;;2.53;1.47;;;21.40;99.90;;;21.36;61.52;101075.00;4923208;28;101847;-43
2023/08/14 06:51:44;;;;;;;3.17;1.40;;;21.40;99.90;;;21.38;62.02;101078.44;4927100;28;97338;-42
2023/08/14 06:54:10;;;;;;;3.20;1.50;;;21.40;99.90;;;21.38;61.73;101083.81;4922627;28;102731;-46
2023/08/14 06:56:36;;;;;;;3.87;1.40;;;21.30;99.90;;;21.38;62.07;101094.53;4931383;28;98134;-48
2023/08/14 06:59:02;;;;;;;1.63;1.20;;;21.30;99.90;;;21.30;62.49;101096.94;4927388;28;114321;-44
2023/08/14 07:01:27;;;;;;;2.97;1.43;;;21.20;99.90;;;21.24;62.32;101097.34;4926075;28;99493;-44
2023/08/14 07:03:53;;;;;;;3.37;1.90;;;21.10;99.90;;;21.22;62.96;101100.16;4910138;28;99595;-46
2023/08/14 07:06:19;;;;;;;2.77;1.17;;;21.10;99.90;;;21.22;62.66;101104.66;4930368;28;97495;-45
2023/08/14 07:08:45;;;;;;;3.13;1.63;;;21.00;99.90;;;21.21;62.48;101092.22;4925405;28;98747;-45
2023/08/14 07:11:10;;;;;;;2.80;1.30;;;21.00;99.90;;;21.23;62.53;101092.94;4927138;28;97383;-42
2023/08/14 07:13:36;;;;;;;1.53;1.20;;;21.10;99.90;;;21.24;62.68;101086.63;4924111;28;97246;-45
2023/08/14 07:16:02;;;;;;;1.10;0.97;;;21.20;99.90;;;21.28;62.53;101077.44;4922590;28;101918;-46
2023/08/14 07:18:29;;;;;;;2.00;1.40;;;21.20;99.90;;;21.28;62.39;101077.44;4930865;28;97482;-46
2023/08/14 07:20:56;;;;;;;1.43;1.23;;;21.30;99.90;;;21.30;62.40;101075.47;4921941;28;97341;-42
2023/08/14 07:23:22;;;;;;;1.53;1.30;;;21.30;99.90;;;21.28;62.43;101072.06;4926028;28;97315;-44
2023/08/14 07:25:49;;;;;;;2.40;0.80;;;21.30;99.90;;;21.35;62.21;101076.00;4925711;28;96946;-45
2023/08/14 07:28:16;;;;;;;2.23;1.10;;;21.40;99.90;;;21.36;62.26;101085.75;4926212;28;97529;-43
2023/08/14 07:30:42;;;;;;;2.07;1.13;;;21.40;99.90;;;21.32;62.44;101073.53;4903210;28;97256;-43
2023/08/14 07:33:10;;;;;;;2.67;1.30;;;21.40;99.90;;;21.37;62.17;101082.09;4911766;28;97449;-47
2023/08/14 07:35:39;;;;;;;2.37;1.40;;;21.40;99.90;;;21.41;61.92;101083.59;4925381;28;97373;-44
2023/08/14 07:38:05;;;;;;;1.13;0.93;;;21.40;99.90;;;21.34;62.02;101076.97;4926648;28;97487;-43
2023/08/14 07:40:30;;;;;;;1.30;1.03;;;21.40;99.90;;;21.38;62.19;101073.06;4924016;28;97097;-44
2023/08/14 07:42:56;;;;;;;2.03;1.33;;;21.40;99.90;;;21.44;61.97;101069.94;4924615;28;97407;-44
2023/08/14 07:45:22;;;;;;;1.40;0.93;;;21.50;99.90;;;21.46;61.97;101075.19;4927929;28;97320;-44
2023/08/14 07:47:48;;;;;;;1.27;0.90;;;21.50;99.90;;;21.46;62.16;101065.31;4929588;28;100674;-42
2023/08/14 07:50:14;;;;;;;1.73;1.10;;;21.50;99.90;;;21.46;61.93;101053.72;4927592;28;109879;-43
2023/08/14 07:52:39;;;;;;;1.90;1.10;;;21.50;99.90;;;21.49;61.92;101053.50;4921781;28;97097;-45
2023/08/14 07:55:06;;;;;;;2.20;1.30;;;21.50;99.90;;;21.51;61.90;101067.66;4919779;28;97311;-45
2023/08/14 07:57:32;;;;;;;4.37;2.10;;;21.50;99.90;;;21.54;62.80;101068.25;4914578;28;106270;-43
2023/08/14 07:59:57;;;;;;;1.63;1.37;;;21.50;99.90;;;21.55;62.08;101069.13;4932402;28;102272;-44
2023/08/14 08:02:23;;;;;;;2.63;1.40;;;21.50;99.90;;;21.51;62.17;101079.25;4924238;28;98673;-44
2023/08/14 08:04:49;;;;;;;2.50;1.20;;;21.50;99.90;;;21.53;62.21;101087.19;4934366;28;97491;-43
2023/08/14 08:07:16;;;;;;;1.97;1.07;;;21.50;99.90;;;21.51;62.03;101076.56;4930176;28;98328;-44
2023/08/14 08:09:41;;;;;;;1.73;1.40;;;21.50;99.90;;;21.48;61.80;101084.84;4924783;28;97026;-43
2023/08/14 08:12:08;;;;;;;2.37;1.20;;;21.50;99.90;;;21.48;61.86;101084.84;4924556;28;97237;-44
2023/08/14 08:14:35;;;;;;;3.03;1.63;;;21.50;99.90;;;21.47;62.20;101093.00;4934448;28;97240;-42
2023/08/14 08:17:02;;;;;;;1.63;1.10;;;21.50;99.90;;;21.50;62.29;101099.00;4925138;28;97626;-43
2023/08/14 08:19:27;;;;;;;1.77;1.10;;;21.50;99.90;;;21.47;62.46;101103.75;4930545;28;97435;-45
2023/08/14 08:21:54;;;;;;;1.47;1.23;;;21.50;99.90;;;21.48;61.75;101094.72;4932001;28;97007;-44
2023/08/14 08:24:19;;;;;;;1.10;0.90;;;21.50;99.90;;;21.44;62.23;101078.00;4930272;28;97397;-44
2023/08/14 08:26:46;;;;;;;2.03;1.00;;;21.50;99.90;;;21.47;62.10;101071.53;4928124;28;109777;-44
2023/08/14 08:29:11;;;;;;;1.43;1.03;;;21.60;99.90;;;21.44;61.99;101075.31;4927848;28;99655;-46
2023/08/14 08:31:37;;;;;;;1.50;0.83;;;21.50;99.90;;;21.43;61.97;101080.81;4925980;28;100263;-43
2023/08/14 08:34:03;;;;;;;2.33;1.13;;;21.50;99.90;;;21.38;62.11;101071.25;4935349;28;104165;-46
2023/08/14 08:36:29;;;;;;;0.80;0.50;;;21.50;99.90;;;21.36;62.29;101062.47;4928977;28;110221;-44
2023/08/14 08:38:55;;;;;;;1.43;1.10;;;21.50;99.90;;;21.39;62.31;101064.06;4930051;28;117689;-45
2023/08/14 08:41:38;;;;;;;4.57;1.40;;;21.50;99.90;;;21.50;61.81;101066.78;4929791;28;97057;-42
2023/08/14 08:44:16;;;;;;;1.50;1.00;;;21.50;99.90;;;21.51;61.86;101079.25;4926925;28;96950;-44
2023/08/14 08:46:58;;;;;;;1.70;1.23;;;21.60;99.90;;;21.62;60.83;101073.06;4901407;28;98563;-44
2023/08/14 08:49:26;;;;;;;2.57;1.30;;;21.60;99.90;;;21.61;61.41;101084.78;4920203;28;99777;-44
2023/08/14 08:51:52;;;;;;;1.70;1.10;;;21.70;99.90;;;21.64;61.05;101081.88;4932373;28;97138;-45
2023/08/14 08:54:18;;;;;;;2.63;1.17;;;21.70;99.90;;;21.65;60.81;101091.63;4908073;28;97194;-42
2023/08/14 08:56:46;;;;;;;2.37;1.37;;;21.70;99.90;;;21.71;60.82;101085.81;4925503;28;115710;-44
2023/08/14 08:59:11;;;;;;;1.83;1.07;;;21.80;99.90;;;21.64;61.07;101087.22;4911436;28;98453;-46
2023/08/14 09:01:38;;;;;;;0.90;0.83;;;21.80;99.90;;;21.53;61.62;101088.03;4914771;28;99395;-43
2023/08/14 09:04:04;;;;;;;4.70;1.20;;;21.70;99.90;;;21.51;61.83;101084.59;4909994;28;97814;-44
2023/08/14 09:06:31;;;;;;;2.60;1.10;;;21.60;99.90;;;21.56;62.01;101093.19;5225385;22;98181;-64
2023/08/14 09:08:57;;;;;;;2.20;1.00;;;21.70;99.90;;;21.66;62.01;101099.56;4941132;28;107508;-62
2023/08/14 09:11:24;;;;;;;1.47;0.93;;;21.70;99.90;;;21.69;61.22;101093.09;4947331;28;105345;-62
2023/08/14 09:13:50;;;;;;;0.97;0.83;;;21.80;99.90;;;21.60;61.71;101097.34;4928682;28;98136;-63
2023/08/14 09:16:16;;;;;;;3.60;1.47;;;21.70;99.90;;;21.73;61.36;101101.81;4947305;28;114834;-66
2023/08/14 09:18:43;;;;;;;1.73;1.00;;;21.80;99.90;;;21.88;58.89;101095.28;4932990;28;100254;-66
2023/08/14 09:21:10;;;;;;;1.87;1.03;;;21.90;99.90;;;21.78;60.90;101080.81;4946817;28;97152;-63
2023/08/14 09:23:38;;;;;;;1.00;0.90;;;21.90;99.90;;;21.75;61.01;101073.88;4953149;28;97420;-66
2023/08/14 09:26:05;;;;;;;1.90;1.03;;;21.90;99.90;;;21.79;60.97;101080.69;4948526;28;97400;-64
2023/08/14 09:28:32;;;;;;;2.60;0.90;;;21.90;99.90;;;21.73;61.12;101078.50;4948767;28;97540;-64
2023/08/14 09:31:09;;;;;;;1.90;1.03;;;21.80;99.90;;;21.72;61.09;101067.88;4958493;28;97306;-62
2023/08/14 09:33:44;;;;;;;1.60;1.10;;;21.80;99.90;;;21.80;60.61;101070.81;4946087;28;97284;-66
2023/08/14 09:36:12;;;;;;;1.30;1.13;;;21.80;99.90;;;21.84;57.96;101065.09;4946525;28;97033;-61
2023/08/14 09:38:39;;;;;;;2.43;1.10;;;21.90;99.90;;;21.90;59.81;101075.38;4933674;28;102769;-65
2023/08/14 09:41:04;;;;;;;1.57;0.87;;;22.00;99.90;;;21.94;58.53;101060.72;4948230;28;97104;-64
2023/08/14 09:43:32;;;;;;;2.50;0.90;;;22.00;99.90;;;21.93;59.15;101058.16;4945398;28;97029;-65
2023/08/14 09:46:02;;;;;;;1.63;1.10;;;22.00;99.90;;;21.83;60.18;101057.16;4944614;28;103899;-65
2023/08/14 09:48:44;;;;;;;3.00;0.93;;;22.00;99.90;;;21.81;60.50;101048.38;4944374;28;101722;-64
2023/08/14 09:51:15;;;;;;;1.67;1.17;;;21.90;99.90;;;21.74;60.95;101057.88;4927445;28;97594;-62
2023/08/14 09:53:50;;;;;;;2.33;1.00;;;21.90;99.90;;;21.75;60.96;101048.84;4932818;28;97453;-65
2023/08/14 09:56:19;;;;;;;0.87;0.87;;;21.80;99.90;;;21.75;60.74;101043.47;4947742;28;97470;-61
2023/08/14 09:58:50;;;;;;;2.57;1.20;;;21.90;99.90;;;21.65;61.16;101049.53;4933361;28;97262;-62
2023/08/14 10:01:18;;;;;;;3.80;1.10;;;21.80;99.90;;;21.75;60.42;101043.47;4945662;28;97519;-62
2023/08/14 10:03:49;;;;;;;1.97;1.00;;;21.80;99.90;;;21.68;60.98;101048.44;4944654;28;97466;-61
2023/08/14 10:06:16;;;;;;;3.20;1.10;;;21.80;99.90;;;21.80;60.36;101046.66;4939151;28;99045;-62
2023/08/14 10:08:45;;;;;;;1.40;1.00;;;21.90;99.90;;;21.87;60.45;101050.59;4947180;28;97570;-61
2023/08/14 10:11:14;;;;;;;4.43;1.00;;;22.00;99.90;;;21.96;59.89;101036.44;4947058;28;97409;-62